createdAt,value
2019-03-08T00:00:16.503Z,21.78
2019-03-08T00:02:42.495Z,21.78
2019-03-08T00:05:08.515Z,21.77
2019-03-08T00:07:34.513Z,21.78
2019-03-08T00:10:00.507Z,21.78
2019-03-08T00:12:26.514Z,21.77
2019-03-08T00:14:52.508Z,21.78
2019-03-08T00:17:18.512Z,21.77
2019-03-08T00:19:44.514Z,21.76
2019-03-08T00:22:10.514Z,21.77
2019-03-08T00:24:36.513Z,21.77
2019-03-08T00:27:02.519Z,21.77
2019-03-08T00:29:28.511Z,21.77
2019-03-08T00:31:54.516Z,21.77
2019-03-08T00:34:20.513Z,21.77
2019-03-08T00:36:46.512Z,21.77
2019-03-08T00:39:12.507Z,21.76
2019-03-08T00:41:38.527Z,21.76
2019-03-08T00:44:04.522Z,21.75
2019-03-08T00:46:30.524Z,21.75
2019-03-08T00:48:56.527Z,21.75
2019-03-08T00:51:22.524Z,21.75
2019-03-08T00:53:48.527Z,21.74
2019-03-08T00:56:14.523Z,21.75
2019-03-08T00:58:40.523Z,21.75
2019-03-08T01:01:06.526Z,21.75
2019-03-08T01:03:32.535Z,21.74
2019-03-08T01:05:58.538Z,21.74
2019-03-08T01:08:24.525Z,21.74
2019-03-08T01:10:50.527Z,21.74
2019-03-08T01:13:16.525Z,21.74
2019-03-08T01:15:42.525Z,21.73
2019-03-08T01:18:08.527Z,21.74
2019-03-08T01:20:34.527Z,21.74
2019-03-08T01:23:00.531Z,21.75
2019-03-08T01:25:26.518Z,21.74
2019-03-08T01:27:52.540Z,21.73
2019-03-08T01:30:18.536Z,21.73
2019-03-08T01:32:44.544Z,21.73
2019-03-08T01:35:10.539Z,21.73
2019-03-08T01:37:36.544Z,21.73
2019-03-08T01:40:02.549Z,21.73
2019-03-08T01:42:28.538Z,21.73
2019-03-08T01:44:54.539Z,21.73
2019-03-08T01:47:20.535Z,21.73
2019-03-08T01:49:46.569Z,21.73
2019-03-08T01:52:12.576Z,21.73
2019-03-08T01:54:38.572Z,21.73
2019-03-08T01:57:04.566Z,21.73
2019-03-08T01:59:30.566Z,21.73
2019-03-08T02:01:56.564Z,21.73
2019-03-08T02:04:22.563Z,21.72
2019-03-08T02:06:48.578Z,21.73
2019-03-08T02:09:14.574Z,21.73
2019-03-08T02:11:40.572Z,21.72
2019-03-08T02:14:06.566Z,21.72
2019-03-08T02:16:32.564Z,21.72
2019-03-08T02:18:58.566Z,21.72
2019-03-08T02:21:24.570Z,21.73
2019-03-08T02:23:50.566Z,21.73
2019-03-08T02:26:16.568Z,21.73
2019-03-08T02:28:42.572Z,21.72
2019-03-08T02:31:08.562Z,21.71
2019-03-08T02:33:34.565Z,21.72
2019-03-08T02:36:00.564Z,21.71
2019-03-08T02:38:26.569Z,21.71
2019-03-08T02:40:52.570Z,21.71
2019-03-08T02:43:18.574Z,21.71
2019-03-08T02:45:44.571Z,21.71
2019-03-08T02:48:10.561Z,21.71
2019-03-08T02:50:36.567Z,21.71
2019-03-08T02:53:02.559Z,21.71
2019-03-08T02:55:28.563Z,21.71
2019-03-08T02:57:54.562Z,21.71
2019-03-08T03:00:20.565Z,21.70
2019-03-08T03:02:46.560Z,21.71
2019-03-08T03:05:12.559Z,21.70
2019-03-08T03:07:38.555Z,21.70
2019-03-08T03:10:04.582Z,21.70
2019-03-08T03:12:30.584Z,21.70
2019-03-08T03:14:56.578Z,21.70
2019-03-08T03:17:22.584Z,21.70
2019-03-08T03:19:48.579Z,21.70
2019-03-08T03:22:14.588Z,21.70
2019-03-08T03:24:40.588Z,21.70
2019-03-08T03:27:06.607Z,21.69
2019-03-08T03:29:32.606Z,21.70
2019-03-08T03:31:58.643Z,21.70
2019-03-08T03:34:24.704Z,21.70
2019-03-08T03:36:50.692Z,21.69
2019-03-08T03:39:16.695Z,21.70
2019-03-08T03:41:42.692Z,21.69
2019-03-08T03:44:08.694Z,21.69
2019-03-08T03:46:34.697Z,21.70
2019-03-08T03:49:00.701Z,21.70
2019-03-08T03:51:26.698Z,21.70
2019-03-08T03:53:52.720Z,21.69
2019-03-08T03:56:18.720Z,21.70
2019-03-08T03:58:44.727Z,21.70
2019-03-08T04:01:10.738Z,21.70
2019-03-08T04:03:36.731Z,21.70
2019-03-08T04:06:02.742Z,21.70
2019-03-08T04:08:28.741Z,21.71
2019-03-08T04:10:54.746Z,21.70
2019-03-08T04:13:20.747Z,21.71
2019-03-08T04:15:46.749Z,21.70
2019-03-08T04:18:12.748Z,21.70
2019-03-08T04:20:38.744Z,21.69
2019-03-08T04:23:04.743Z,21.70
2019-03-08T04:25:30.756Z,21.70
2019-03-08T04:27:56.756Z,21.70
2019-03-08T04:30:22.772Z,21.70
2019-03-08T04:32:48.768Z,21.70
2019-03-08T04:35:14.795Z,21.71
2019-03-08T04:37:40.792Z,21.70
2019-03-08T04:40:06.788Z,21.68
2019-03-08T04:42:32.791Z,21.71
2019-03-08T04:44:58.786Z,21.71
2019-03-08T04:47:24.793Z,21.73
2019-03-08T04:49:50.787Z,21.74
2019-03-08T04:52:16.792Z,21.75
2019-03-08T04:54:42.850Z,21.77
2019-03-08T04:57:08.850Z,21.78
2019-03-08T04:59:34.847Z,21.78
2019-03-08T05:02:00.855Z,21.78
2019-03-08T05:04:26.930Z,21.77
2019-03-08T05:06:52.932Z,21.77
2019-03-08T05:09:18.939Z,21.76
2019-03-08T05:11:44.960Z,21.76
2019-03-08T05:14:10.960Z,21.72
2019-03-08T05:16:36.961Z,21.74
2019-03-08T05:19:02.960Z,21.75
2019-03-08T05:21:30.702Z,21.73
2019-03-08T05:23:54.962Z,21.73
2019-03-08T05:26:20.999Z,21.75
2019-03-08T05:28:47.004Z,21.77
2019-03-08T05:31:13.011Z,21.80
2019-03-08T05:33:39.019Z,21.81
2019-03-08T05:36:05.019Z,21.80
2019-03-08T05:38:31.022Z,21.80
2019-03-08T05:40:57.010Z,21.82
2019-03-08T05:43:23.007Z,21.80
2019-03-08T05:45:48.998Z,21.81
2019-03-08T05:48:15.000Z,21.81
2019-03-08T05:50:40.996Z,21.81
2019-03-08T05:53:07.032Z,21.81
2019-03-08T05:55:33.064Z,21.81
2019-03-08T05:57:59.062Z,21.81
2019-03-08T06:00:31.572Z,21.82
2019-03-08T06:02:51.070Z,21.81
2019-03-08T06:05:17.076Z,21.83
2019-03-08T06:07:43.077Z,21.83
2019-03-08T06:10:09.191Z,21.83
2019-03-08T06:12:35.184Z,21.81
2019-03-08T06:15:03.672Z,21.82
2019-03-08T06:17:29.672Z,21.83
2019-03-08T06:19:55.676Z,21.81
2019-03-08T06:22:21.683Z,21.82
2019-03-08T06:24:47.680Z,21.81
2019-03-08T06:27:13.706Z,21.82
2019-03-08T06:29:39.708Z,21.82
2019-03-08T06:32:05.707Z,21.82
2019-03-08T06:34:32.921Z,21.80
2019-03-08T06:36:57.727Z,21.81
2019-03-08T06:39:23.725Z,21.81
2019-03-08T06:41:49.716Z,21.82
2019-03-08T06:44:15.720Z,21.81
2019-03-08T06:46:41.755Z,21.82
2019-03-08T06:49:07.761Z,21.81
2019-03-08T06:51:33.763Z,21.81
2019-03-08T06:53:59.765Z,21.81
2019-03-08T06:56:25.762Z,21.81
2019-03-08T06:58:51.803Z,21.81
2019-03-08T07:01:17.808Z,21.81
2019-03-08T07:03:43.807Z,21.81
2019-03-08T07:06:09.805Z,21.81
2019-03-08T07:08:35.799Z,21.82
2019-03-08T07:11:01.801Z,21.81
2019-03-08T07:13:28.180Z,21.80
2019-03-08T07:15:53.848Z,21.81
2019-03-08T07:18:19.846Z,21.80
2019-03-08T07:20:45.974Z,21.81
2019-03-08T07:23:11.976Z,21.80
2019-03-08T07:25:37.999Z,21.80
2019-03-08T07:28:04.017Z,21.80
2019-03-08T07:30:30.019Z,21.79
2019-03-08T07:32:56.031Z,21.80
2019-03-08T07:35:22.032Z,21.81
2019-03-08T07:37:48.033Z,21.81
2019-03-08T07:40:15.772Z,21.80
2019-03-08T07:42:40.058Z,21.80
2019-03-08T07:45:06.053Z,21.80
2019-03-08T07:47:32.068Z,21.80
2019-03-08T07:49:58.054Z,21.81
2019-03-08T07:52:24.075Z,21.80
2019-03-08T07:54:53.157Z,21.81
2019-03-08T07:57:16.063Z,21.81
2019-03-08T07:59:42.065Z,21.81
2019-03-08T08:02:08.071Z,21.81
2019-03-08T08:04:34.071Z,21.80
2019-03-08T08:07:00.077Z,21.81
2019-03-08T08:09:26.074Z,21.80
2019-03-08T08:11:52.082Z,21.81
2019-03-08T08:14:18.091Z,21.82
2019-03-08T08:16:44.095Z,21.81
2019-03-08T08:19:10.100Z,21.81
2019-03-08T08:21:36.091Z,21.81
2019-03-08T08:24:02.091Z,21.81
2019-03-08T08:26:28.109Z,21.81
2019-03-08T08:28:55.910Z,21.81
2019-03-08T08:31:20.114Z,21.80
2019-03-08T08:33:46.147Z,21.81
2019-03-08T08:36:12.142Z,21.81
2019-03-08T08:38:38.166Z,21.82
2019-03-08T08:41:04.174Z,21.81
2019-03-08T08:43:30.179Z,21.82
2019-03-08T08:45:56.195Z,21.81
2019-03-08T08:48:22.203Z,21.81
2019-03-08T08:50:48.256Z,21.81
2019-03-08T08:53:14.255Z,21.81
2019-03-08T08:55:40.253Z,21.81
2019-03-08T08:58:06.313Z,21.82
2019-03-08T09:00:32.329Z,21.81
2019-03-08T09:02:58.324Z,21.82
2019-03-08T09:05:24.339Z,21.80
2019-03-08T09:07:50.329Z,21.79
2019-03-08T09:10:16.331Z,21.81
2019-03-08T09:12:42.324Z,21.81
2019-03-08T09:15:08.328Z,21.82
2019-03-08T09:17:34.335Z,21.81
2019-03-08T09:20:00.358Z,21.82
2019-03-08T09:22:26.331Z,21.83
2019-03-08T09:24:52.330Z,21.82
2019-03-08T09:27:18.331Z,21.84
2019-03-08T09:29:44.440Z,21.83
2019-03-08T09:32:10.439Z,21.83
2019-03-08T09:34:36.447Z,21.84
2019-03-08T09:37:02.454Z,21.83
2019-03-08T09:39:28.462Z,21.84
2019-03-08T09:41:54.459Z,21.85
2019-03-08T09:44:20.483Z,21.85
2019-03-08T09:46:46.470Z,21.86
2019-03-08T09:49:12.464Z,21.86
2019-03-08T09:51:38.471Z,21.86
2019-03-08T09:54:04.484Z,21.86
2019-03-08T09:56:30.506Z,21.85
2019-03-08T09:58:56.508Z,21.86
2019-03-08T10:01:22.501Z,21.87
2019-03-08T10:03:48.510Z,21.87
2019-03-08T10:06:14.516Z,21.89
2019-03-08T10:08:40.523Z,21.86
2019-03-08T10:11:06.527Z,21.88
2019-03-08T10:13:32.541Z,21.88
2019-03-08T10:15:58.585Z,21.91
2019-03-08T10:18:24.583Z,21.91
2019-03-08T10:20:50.607Z,21.92
2019-03-08T10:23:19.962Z,21.92
2019-03-08T10:25:42.650Z,21.94
2019-03-08T10:28:08.651Z,21.95
2019-03-08T10:30:34.653Z,21.97
2019-03-08T10:33:00.657Z,22.00
2019-03-08T10:35:26.654Z,21.99
2019-03-08T10:37:52.651Z,22.00
2019-03-08T10:40:18.660Z,21.99
2019-03-08T10:42:44.770Z,21.99
2019-03-08T10:45:10.763Z,21.97
2019-03-08T10:47:36.766Z,22.01
2019-03-08T10:50:02.773Z,22.03
2019-03-08T10:52:28.791Z,22.04
2019-03-08T10:54:54.792Z,22.04
2019-03-08T10:57:20.803Z,22.04
2019-03-08T10:59:46.808Z,22.06
2019-03-08T11:02:12.808Z,22.05
2019-03-08T11:04:38.816Z,22.04
2019-03-08T11:07:04.817Z,22.06
2019-03-08T11:09:30.818Z,22.07
2019-03-08T11:11:56.822Z,22.06
2019-03-08T11:14:22.821Z,22.09
2019-03-08T11:16:48.819Z,22.07
2019-03-08T11:19:14.822Z,22.08
2019-03-08T11:21:40.855Z,22.08
2019-03-08T11:24:06.861Z,22.09
2019-03-08T11:26:32.917Z,22.10
2019-03-08T11:28:58.935Z,22.11
2019-03-08T11:31:24.937Z,22.11
2019-03-08T11:33:50.983Z,22.09
2019-03-08T11:36:16.986Z,22.07
2019-03-08T11:38:42.991Z,22.08
2019-03-08T11:41:08.982Z,22.05
2019-03-08T11:43:34.988Z,22.05
2019-03-08T11:46:00.995Z,22.04
2019-03-08T11:48:27.000Z,22.05
2019-03-08T11:50:53.000Z,22.06
2019-03-08T11:53:18.998Z,22.05
2019-03-08T11:55:45.003Z,22.06
2019-03-08T11:58:11.007Z,22.05
2019-03-08T12:00:37.007Z,22.05
2019-03-08T12:03:03.042Z,22.05
2019-03-08T12:05:29.069Z,22.05
2019-03-08T12:07:55.067Z,22.05
2019-03-08T12:10:21.069Z,22.06
2019-03-08T12:12:47.067Z,22.06
2019-03-08T12:15:14.450Z,22.06
2019-03-08T12:17:39.079Z,22.08
2019-03-08T12:20:05.089Z,22.06
2019-03-08T12:22:31.099Z,22.06
2019-03-08T12:24:57.109Z,22.08
2019-03-08T12:27:23.224Z,22.06
2019-03-08T12:29:49.231Z,22.06
2019-03-08T12:32:15.239Z,22.07
2019-03-08T12:34:41.254Z,22.07
2019-03-08T12:37:07.251Z,22.07
2019-03-08T12:39:33.251Z,22.10
2019-03-08T12:41:59.275Z,22.09
2019-03-08T12:44:25.276Z,22.08
2019-03-08T12:46:51.284Z,22.10
2019-03-08T12:49:17.292Z,22.10
2019-03-08T12:51:43.308Z,22.08
2019-03-08T12:54:09.304Z,22.09
2019-03-08T12:56:35.308Z,22.09
2019-03-08T12:59:01.473Z,22.09
2019-03-08T13:01:27.484Z,22.10
2019-03-08T13:03:53.479Z,22.10
2019-03-08T13:06:19.488Z,22.10
2019-03-08T13:08:45.602Z,22.09
2019-03-08T13:11:11.792Z,22.10
2019-03-08T13:13:37.856Z,22.13
2019-03-08T13:16:03.865Z,22.11
2019-03-08T13:18:29.866Z,22.13
2019-03-08T13:20:55.890Z,22.18
2019-03-08T13:23:21.862Z,22.18
2019-03-08T13:25:47.916Z,22.17
2019-03-08T13:28:13.953Z,22.17
2019-03-08T13:30:39.915Z,22.16
2019-03-08T13:33:05.920Z,22.17
2019-03-08T13:35:31.920Z,22.17
2019-03-08T13:37:57.972Z,22.17
2019-03-08T13:40:23.967Z,22.18
2019-03-08T13:42:49.974Z,22.22
2019-03-08T13:45:15.970Z,22.25
2019-03-08T13:47:41.966Z,22.23
2019-03-08T13:50:07.976Z,22.27
2019-03-08T13:52:33.989Z,22.29
2019-03-08T13:55:00.025Z,22.31
2019-03-08T13:57:26.051Z,22.30
2019-03-08T13:59:52.070Z,22.32
2019-03-08T14:02:18.074Z,22.31
2019-03-08T14:04:44.074Z,22.32
2019-03-08T14:07:10.084Z,22.32
2019-03-08T14:09:36.085Z,22.33
2019-03-08T14:12:02.086Z,22.30
2019-03-08T14:14:28.089Z,22.30
2019-03-08T14:16:54.096Z,22.33
2019-03-08T14:19:20.128Z,22.35
2019-03-08T14:21:46.127Z,22.33
2019-03-08T14:24:12.120Z,22.34
2019-03-08T14:26:38.133Z,22.31
2019-03-08T14:29:04.128Z,22.30
2019-03-08T14:31:30.124Z,22.31
2019-03-08T14:33:56.120Z,22.31
2019-03-08T14:36:22.125Z,22.30
2019-03-08T14:38:48.126Z,22.30
2019-03-08T14:41:14.131Z,22.30
2019-03-08T14:43:40.130Z,22.29
2019-03-08T14:46:06.167Z,22.30
2019-03-08T14:48:32.213Z,22.32
2019-03-08T14:50:58.192Z,22.32
2019-03-08T14:53:24.215Z,22.31
2019-03-08T14:55:50.267Z,22.29
2019-03-08T14:58:16.261Z,22.30
2019-03-08T15:00:42.264Z,22.31
2019-03-08T15:03:08.267Z,22.30
2019-03-08T15:05:34.281Z,22.32
2019-03-08T15:08:00.284Z,22.32
2019-03-08T15:10:26.292Z,22.30
2019-03-08T15:12:53.160Z,22.29
2019-03-08T15:15:18.309Z,22.27
2019-03-08T15:17:44.302Z,22.24
2019-03-08T15:20:15.145Z,22.24
2019-03-08T15:22:38.109Z,22.22
2019-03-08T15:25:02.297Z,22.21
2019-03-08T15:27:28.303Z,22.21
2019-03-08T15:29:54.906Z,22.20
2019-03-08T15:32:20.331Z,22.20
2019-03-08T15:34:46.331Z,22.19
2019-03-08T15:37:12.336Z,22.19
2019-03-08T15:39:38.503Z,22.19
2019-03-08T15:42:04.500Z,22.19
2019-03-08T15:44:30.504Z,22.18
2019-03-08T15:46:59.183Z,22.18
2019-03-08T15:49:22.524Z,22.17
2019-03-08T15:51:48.522Z,22.17
2019-03-08T15:54:14.527Z,22.16
2019-03-08T15:56:40.523Z,22.16
2019-03-08T15:59:06.572Z,22.16
2019-03-08T16:01:32.571Z,22.15
2019-03-08T16:03:58.576Z,22.15
2019-03-08T16:06:24.571Z,22.14
2019-03-08T16:08:50.583Z,22.14
2019-03-08T16:11:16.809Z,22.13
2019-03-08T16:13:42.819Z,22.12
2019-03-08T16:16:08.816Z,22.12
2019-03-08T16:18:34.808Z,22.12
2019-03-08T16:21:00.833Z,22.10
2019-03-08T16:23:26.865Z,22.09
2019-03-08T16:25:52.867Z,22.09
2019-03-08T16:28:18.880Z,22.08
2019-03-08T16:30:47.600Z,22.08
2019-03-08T16:33:10.913Z,22.08
2019-03-08T16:35:36.919Z,22.07
2019-03-08T16:38:02.919Z,22.06
2019-03-08T16:40:28.941Z,22.06
2019-03-08T16:42:54.977Z,22.06
2019-03-08T16:45:21.186Z,22.06
2019-03-08T16:47:47.186Z,22.06
2019-03-08T16:50:13.214Z,22.06
2019-03-08T16:52:39.218Z,22.05
2019-03-08T16:55:05.216Z,22.05
2019-03-08T16:57:31.228Z,22.05
2019-03-08T16:59:57.290Z,22.04
2019-03-08T17:02:23.298Z,22.05
2019-03-08T17:04:49.300Z,22.05
2019-03-08T17:07:15.315Z,22.05
2019-03-08T17:09:42.768Z,22.04
2019-03-08T17:12:07.353Z,22.04
2019-03-08T17:14:33.355Z,22.05
2019-03-08T17:16:59.365Z,22.06
2019-03-08T17:19:25.361Z,22.03
2019-03-08T17:21:54.140Z,22.04
2019-03-08T17:24:20.158Z,22.06
2019-03-08T17:26:46.171Z,22.06
2019-03-08T17:29:12.177Z,22.05
2019-03-08T17:31:38.176Z,22.08
2019-03-08T17:34:04.182Z,22.08
2019-03-08T17:36:30.384Z,22.09
2019-03-08T17:38:56.394Z,22.09
2019-03-08T17:41:22.698Z,22.09
2019-03-08T17:43:48.393Z,22.10
2019-03-08T17:46:14.396Z,22.10
2019-03-08T17:48:40.395Z,22.09
2019-03-08T17:51:06.395Z,22.08
2019-03-08T17:53:32.401Z,22.08
2019-03-08T17:55:58.397Z,22.08
2019-03-08T17:58:24.399Z,22.07
2019-03-08T18:00:50.400Z,22.07
2019-03-08T18:03:16.391Z,22.09
2019-03-08T18:05:42.415Z,22.08
2019-03-08T18:08:08.411Z,22.08
2019-03-08T18:10:34.441Z,22.07
2019-03-08T18:13:00.446Z,22.07
2019-03-08T18:15:26.450Z,22.08
2019-03-08T18:17:52.450Z,22.07
2019-03-08T18:20:18.465Z,22.08
2019-03-08T18:22:44.475Z,22.07
2019-03-08T18:25:10.478Z,22.08
2019-03-08T18:27:36.492Z,22.09
2019-03-08T18:30:02.488Z,22.07
2019-03-08T18:32:28.494Z,22.06
2019-03-08T18:34:54.503Z,22.05
2019-03-08T18:37:20.520Z,22.07
2019-03-08T18:39:46.522Z,22.09
2019-03-08T18:42:12.527Z,22.07
2019-03-08T18:44:38.533Z,22.08
2019-03-08T18:47:04.567Z,22.09
2019-03-08T18:49:30.556Z,22.08
2019-03-08T18:51:56.548Z,22.08
2019-03-08T18:54:22.552Z,22.09
2019-03-08T18:56:48.543Z,22.06
2019-03-08T18:59:14.544Z,22.08
2019-03-08T19:01:40.545Z,22.10
2019-03-08T19:04:06.588Z,22.10
2019-03-08T19:06:32.583Z,22.09
2019-03-08T19:08:58.582Z,22.11
2019-03-08T19:11:24.573Z,22.10
2019-03-08T19:13:50.579Z,22.10
2019-03-08T19:16:16.587Z,22.10
2019-03-08T19:18:42.583Z,22.12
2019-03-08T19:21:08.591Z,22.09
2019-03-08T19:23:34.590Z,22.10
2019-03-08T19:26:00.604Z,22.11
2019-03-08T19:28:26.624Z,22.12
2019-03-08T19:30:52.622Z,22.11
2019-03-08T19:33:18.616Z,22.12
2019-03-08T19:35:44.614Z,22.12
2019-03-08T19:38:10.612Z,22.12
2019-03-08T19:40:36.615Z,22.12
2019-03-08T19:43:02.607Z,22.11
2019-03-08T19:45:28.602Z,22.10
2019-03-08T19:47:54.606Z,22.11
2019-03-08T19:50:20.608Z,22.12
2019-03-08T19:52:46.609Z,22.13
2019-03-08T19:55:12.618Z,22.13
2019-03-08T19:57:38.625Z,22.12
2019-03-08T20:00:04.669Z,22.12
2019-03-08T20:02:30.651Z,22.11
2019-03-08T20:04:56.652Z,22.11
2019-03-08T20:07:22.647Z,22.09
2019-03-08T20:09:48.735Z,22.09
2019-03-08T20:12:14.726Z,22.09
2019-03-08T20:14:40.727Z,22.11
2019-03-08T20:17:06.731Z,22.11
2019-03-08T20:19:32.724Z,22.11
2019-03-08T20:21:58.744Z,22.10
2019-03-08T20:24:25.151Z,22.12
2019-03-08T20:26:51.161Z,22.12
2019-03-08T20:29:17.154Z,22.12
2019-03-08T20:31:43.152Z,22.11
2019-03-08T20:34:09.161Z,22.11
2019-03-08T20:36:35.185Z,22.12
2019-03-08T20:39:01.166Z,22.12
2019-03-08T20:41:27.166Z,22.12
2019-03-08T20:43:53.171Z,22.12
2019-03-08T20:46:19.176Z,22.13
2019-03-08T20:48:45.244Z,22.12
2019-03-08T20:51:11.244Z,22.12
2019-03-08T20:53:37.273Z,22.12
2019-03-08T20:56:03.265Z,22.12
2019-03-08T20:58:29.270Z,22.11
2019-03-08T21:00:55.294Z,22.12
2019-03-08T21:03:22.261Z,22.12
2019-03-08T21:05:48.458Z,22.12
2019-03-08T21:08:14.545Z,22.11
2019-03-08T21:10:40.554Z,22.11
2019-03-08T21:13:06.551Z,22.12
2019-03-08T21:15:32.577Z,22.12
2019-03-08T21:17:58.652Z,22.12
2019-03-08T21:20:24.648Z,22.12
2019-03-08T21:22:50.648Z,22.12
2019-03-08T21:25:16.643Z,22.12
2019-03-08T21:27:42.643Z,22.12
2019-03-08T21:30:08.644Z,22.12
2019-03-08T21:32:34.638Z,22.12
2019-03-08T21:35:00.717Z,22.12
2019-03-08T21:37:26.716Z,22.11
2019-03-08T21:39:52.714Z,22.13
2019-03-08T21:42:18.714Z,22.13
2019-03-08T21:44:44.723Z,22.12
2019-03-08T21:47:10.755Z,22.13
2019-03-08T21:49:36.753Z,22.13
2019-03-08T21:52:02.750Z,22.11
2019-03-08T21:54:28.755Z,22.13
2019-03-08T21:56:54.828Z,22.13
2019-03-08T21:59:20.825Z,22.13
2019-03-08T22:01:46.818Z,22.13
2019-03-08T22:04:12.856Z,22.13
2019-03-08T22:06:38.864Z,22.13
2019-03-08T22:09:04.855Z,22.13
2019-03-08T22:11:30.857Z,22.13
2019-03-08T22:13:56.854Z,22.13
2019-03-08T22:16:22.852Z,22.12
2019-03-08T22:18:48.951Z,22.13
2019-03-08T22:21:14.954Z,22.12
2019-03-08T22:23:40.949Z,22.12
2019-03-08T22:26:06.952Z,22.13
2019-03-08T22:28:32.947Z,22.12
2019-03-08T22:30:58.959Z,22.11
2019-03-08T22:33:24.963Z,22.10
2019-03-08T22:35:50.983Z,22.11
2019-03-08T22:38:16.993Z,22.10
2019-03-08T22:40:42.985Z,22.10
2019-03-08T22:43:08.983Z,22.09
2019-03-08T22:45:34.978Z,22.08
2019-03-08T22:48:01.021Z,22.09
2019-03-08T22:50:27.024Z,22.09
2019-03-08T22:52:53.030Z,22.08
2019-03-08T22:55:19.043Z,22.07
2019-03-08T22:57:45.041Z,22.07
2019-03-08T23:00:11.039Z,22.07
2019-03-08T23:02:37.041Z,22.06
2019-03-08T23:05:03.049Z,22.06
2019-03-08T23:07:29.039Z,22.06
2019-03-08T23:09:55.039Z,22.04
2019-03-08T23:12:21.040Z,22.05
2019-03-08T23:14:47.051Z,22.04
2019-03-08T23:17:13.048Z,22.05
2019-03-08T23:19:39.050Z,22.04
2019-03-08T23:22:05.055Z,22.03
2019-03-08T23:24:31.047Z,22.03
2019-03-08T23:26:57.078Z,22.03
2019-03-08T23:29:23.073Z,22.02
2019-03-08T23:31:49.077Z,22.03
2019-03-08T23:34:15.076Z,22.02
2019-03-08T23:36:41.077Z,22.02
2019-03-08T23:39:07.078Z,22.02
2019-03-08T23:41:33.074Z,22.01
2019-03-08T23:43:59.073Z,22.01
2019-03-08T23:46:25.067Z,22.01
2019-03-08T23:48:51.103Z,22.01
2019-03-08T23:51:17.125Z,22.00
2019-03-08T23:53:43.118Z,22.00
2019-03-08T23:56:09.166Z,22.01
2019-03-08T23:58:35.114Z,22.00
